Time;durP1;ratioP1;P1;durP2;ratioP2;P2;SDS_P1;SDS_P2;PMS_P1;PMS_P2;Temp;Humidity;BMP_temperature;BMP_pressure;BME280_temperature;BME280_humidity;BME280_pressure;Samples;Min_cycle;Max_cycle;Signal;HPM_P1;HPM_P2
2021/05/21 00:00:04;;;;;;;3.67;1.20;;;12.00;99.90;;;;;;5120966;27;20126;-85
2021/05/21 00:02:31;;;;;;;2.92;1.17;;;12.00;99.90;;;;;;5154409;27;20059;-85
2021/05/21 00:04:58;;;;;;;2.45;1.20;;;12.00;99.90;;;;;;5120796;27;20050;-86
2021/05/21 00:07:24;;;;;;;3.55;1.38;;;12.00;99.90;;;;;;5120340;27;20073;-85
2021/05/21 00:09:51;;;;;;;2.42;1.20;;;12.00;99.90;;;;;;5104163;27;20042;-86
2021/05/21 00:12:18;;;;;;;2.85;1.23;;;12.10;99.90;;;;;;5137128;27;20096;-85
2021/05/21 00:14:45;;;;;;;3.72;1.23;;;12.00;99.90;;;;;;5120710;27;20424;-87
2021/05/21 00:17:12;;;;;;;3.08;1.40;;;12.00;99.90;;;;;;5120658;27;20074;-85
2021/05/21 00:19:38;;;;;;;5.43;1.60;;;12.00;99.90;;;;;;5120350;27;20035;-85
2021/05/21 00:22:05;;;;;;;3.83;1.35;;;12.00;99.90;;;;;;5137625;27;20035;-85
2021/05/21 00:24:32;;;;;;;3.42;1.45;;;12.10;99.90;;;;;;5120318;27;20039;-85
2021/05/21 00:26:59;;;;;;;5.13;1.90;;;12.10;99.90;;;;;;5137392;27;20040;-85
2021/05/21 00:29:26;;;;;;;2.22;1.00;;;12.10;99.90;;;;;;5119868;27;20543;-86
2021/05/21 00:31:53;;;;;;;4.28;1.25;;;12.10;99.90;;;;;;5120441;27;20031;-85
2021/05/21 00:34:20;;;;;;;4.00;1.60;;;12.10;99.90;;;;;;5119974;27;20375;-85
2021/05/21 00:36:46;;;;;;;4.28;1.40;;;12.10;99.90;;;;;;5137305;27;20035;-86
2021/05/21 00:39:13;;;;;;;3.83;1.40;;;12.20;99.90;;;;;;5103628;27;20054;-86
2021/05/21 00:41:40;;;;;;;2.63;1.30;;;12.10;99.90;;;;;;5103745;27;20057;-87
2021/05/21 00:44:07;;;;;;;5.15;1.20;;;12.10;99.90;;;;;;5120542;27;20167;-86
2021/05/21 00:46:34;;;;;;;3.72;1.40;;;12.10;99.90;;;;;;5120444;27;20043;-84
2021/05/21 00:49:01;;;;;;;4.15;1.30;;;12.10;99.90;;;;;;5137867;27;20034;-84
2021/05/21 00:51:27;;;;;;;3.72;1.38;;;12.10;99.90;;;;;;5136392;27;20042;-84
2021/05/21 00:53:57;;;;;;;3.33;1.35;;;12.10;99.90;;;;;;5137228;27;20083;-84
2021/05/21 00:56:24;;;;;;;2.58;1.20;;;12.10;99.90;;;;;;5119771;27;20096;-84
2021/05/21 00:58:51;;;;;;;3.58;1.17;;;12.10;99.90;;;;;;5120489;27;20049;-85
2021/05/21 01:01:19;;;;;;;3.72;1.40;;;12.00;99.90;;;;;;5136226;27;20039;-85
2021/05/21 01:03:45;;;;;;;4.78;1.20;;;12.00;99.90;;;;;;5153310;27;20042;-85
2021/05/21 01:06:13;;;;;;;3.63;1.20;;;12.00;99.90;;;;;;5103283;27;20533;-85
2021/05/21 01:08:40;;;;;;;3.70;1.30;;;11.90;99.90;;;;;;5136896;27;20031;-84
2021/05/21 01:11:09;;;;;;;2.75;1.20;;;11.90;99.90;;;;;;5153441;27;20106;-84
2021/05/21 01:13:36;;;;;;;5.35;1.20;;;11.90;99.90;;;;;;5154280;27;20050;-86
2021/05/21 01:16:03;;;;;;;2.88;1.15;;;11.90;99.90;;;;;;5153874;27;20051;-85
2021/05/21 01:18:30;;;;;;;2.55;1.20;;;11.90;99.90;;;;;;5119779;27;20482;-84
2021/05/21 01:20:57;;;;;;;3.35;1.38;;;11.90;99.90;;;;;;5136990;27;20027;-85
2021/05/21 01:23:24;;;;;;;4.18;1.40;;;11.90;99.90;;;;;;5153747;27;20371;-86
2021/05/21 01:25:51;;;;;;;3.20;1.30;;;11.90;99.90;;;;;;5102841;27;20046;-85
2021/05/21 01:28:20;;;;;;;2.72;1.23;;;11.90;99.90;;;;;;5153570;27;20112;-85
2021/05/21 01:30:48;;;;;;;4.40;1.30;;;11.90;99.90;;;;;;5153149;27;20035;-85
2021/05/21 01:33:15;;;;;;;2.83;1.10;;;11.90;99.90;;;;;;5153381;27;20054;-85
2021/05/21 01:35:42;;;;;;;4.72;1.30;;;11.90;99.90;;;;;;5135990;27;20160;-85
2021/05/21 01:38:12;;;;;;;3.78;1.10;;;11.90;99.90;;;;;;5153525;27;20058;-85
2021/05/21 01:40:41;;;;;;;7.60;1.25;;;11.90;99.90;;;;;;5136268;27;20073;-86
2021/05/21 01:43:10;;;;;;;5.18;1.30;;;11.90;99.90;;;;;;5154390;27;20038;-85
2021/05/21 01:45:39;;;;;;;3.40;1.33;;;11.90;99.90;;;;;;5136111;27;20046;-84
2021/05/21 01:48:08;;;;;;;4.13;1.13;;;11.90;99.90;;;;;;5102433;27;20557;-84
2021/05/21 01:50:35;;;;;;;2.90;1.00;;;11.90;99.90;;;;;;5152516;27;20476;-84
2021/05/21 01:53:02;;;;;;;2.95;1.20;;;11.90;99.90;;;;;;5102659;27;20138;-84
2021/05/21 01:55:29;;;;;;;4.47;1.27;;;11.90;99.90;;;;;;5136094;27;20100;-85
2021/05/21 01:57:56;;;;;;;2.42;1.23;;;11.90;99.90;;;;;;5102030;27;20050;-84
2021/05/21 02:00:22;;;;;;;4.00;1.30;;;11.90;99.90;;;;;;5135818;27;20504;-84
2021/05/21 02:02:50;;;;;;;5.55;1.70;;;11.90;99.90;;;;;;5118302;27;20049;-84
2021/05/21 02:05:17;;;;;;;2.85;1.20;;;11.80;99.90;;;;;;5135609;27;20402;-84
2021/05/21 02:07:46;;;;;;;3.08;1.10;;;11.80;99.90;;;;;;5151809;27;20039;-84
2021/05/21 02:10:13;;;;;;;6.57;1.52;;;11.80;99.90;;;;;;5135441;27;20031;-84
2021/05/21 02:12:44;;;;;;;3.53;1.10;;;11.80;99.90;;;;;;5169391;27;20079;-83
2021/05/21 02:15:11;;;;;;;3.72;1.20;;;11.80;99.90;;;;;;5170689;27;20372;-83
2021/05/21 02:17:39;;;;;;;3.33;1.25;;;11.70;99.90;;;;;;5152061;27;20088;-84
2021/05/21 02:20:06;;;;;;;1.98;0.90;;;11.70;99.90;;;;;;5135355;27;20059;-84
2021/05/21 02:22:37;;;;;;;3.83;1.17;;;11.70;99.90;;;;;;5135087;27;20475;-84
2021/05/21 02:25:04;;;;;;;3.50;1.27;;;11.70;99.90;;;;;;5153034;27;20504;-84
2021/05/21 02:27:31;;;;;;;2.83;1.20;;;11.70;99.90;;;;;;5136105;27;20118;-84
2021/05/21 02:29:58;;;;;;;3.60;1.20;;;11.70;99.90;;;;;;5101951;27;20133;-84
2021/05/21 02:32:24;;;;;;;4.85;1.20;;;11.70;99.90;;;;;;5119055;27;20123;-84
2021/05/21 02:34:51;;;;;;;2.17;1.10;;;11.70;99.90;;;;;;5135144;27;20035;-84
2021/05/21 02:37:18;;;;;;;5.00;1.20;;;11.70;99.90;;;;;;5118075;27;20047;-84
2021/05/21 02:39:46;;;;;;;6.18;1.83;;;11.80;99.90;;;;;;5169295;27;20103;-84
2021/05/21 02:42:13;;;;;;;2.65;1.25;;;11.80;99.90;;;;;;5118146;27;20035;-84
2021/05/21 02:44:40;;;;;;;6.32;1.35;;;11.80;99.90;;;;;;5134422;27;20043;-84
2021/05/21 02:47:07;;;;;;;4.10;1.58;;;11.80;99.90;;;;;;5134794;27;20035;-84
2021/05/21 02:49:34;;;;;;;4.57;1.75;;;11.70;99.90;;;;;;5134575;27;20363;-85
2021/05/21 02:52:02;;;;;;;5.38;1.40;;;11.60;99.90;;;;;;5117742;27;20031;-84
2021/05/21 02:54:30;;;;;;;6.43;1.83;;;11.60;99.90;;;;;;5118038;27;20043;-84
2021/05/21 02:56:57;;;;;;;8.20;2.20;;;11.40;99.90;;;;;;5134396;27;20046;-84
2021/05/21 02:59:31;;;;;;;6.30;1.70;;;11.30;99.90;;;;;;5117498;27;20047;-84
2021/05/21 03:01:59;;;;;;;12.32;2.17;;;11.20;99.90;;;;;;5151191;27;20043;-83
2021/05/21 03:04:27;;;;;;;11.95;2.60;;;11.20;99.90;;;;;;5101110;27;20074;-84
2021/05/21 03:06:53;;;;;;;9.98;2.40;;;11.10;99.90;;;;;;5134379;27;20058;-85
2021/05/21 03:09:20;;;;;;;13.13;2.90;;;11.10;99.90;;;;;;5101584;27;20062;-84
2021/05/21 03:11:49;;;;;;;9.30;1.98;;;11.10;99.90;;;;;;5135208;27;20039;-85
2021/05/21 03:14:19;;;;;;;10.20;1.90;;;11.00;99.90;;;;;;5101846;27;20039;-86
2021/05/21 03:16:47;;;;;;;11.73;2.72;;;11.00;99.90;;;;;;5134646;27;20126;-84
2021/05/21 03:19:13;;;;;;;11.55;2.40;;;10.90;99.90;;;;;;5117545;27;20150;-84
2021/05/21 03:21:40;;;;;;;17.40;2.53;;;10.90;99.90;;;;;;5117452;28;20042;-85
2021/05/21 03:24:08;;;;;;;12.95;2.30;;;10.90;99.90;;;;;;5112800;28;20082;-86
2021/05/21 03:26:35;;;;;;;15.18;2.42;;;10.80;99.90;;;;;;5116926;27;20038;-85
2021/05/21 03:29:02;;;;;;;11.77;2.90;;;10.80;99.90;;;;;;5129966;28;20127;-85
2021/05/21 03:31:30;;;;;;;12.93;2.85;;;10.80;99.90;;;;;;5130200;28;20043;-85
2021/05/21 03:33:57;;;;;;;18.50;2.80;;;10.70;99.90;;;;;;5112963;28;20445;-85
2021/05/21 03:36:24;;;;;;;12.82;2.33;;;10.60;99.90;;;;;;5113603;28;20229;-85
2021/05/21 03:38:52;;;;;;;13.80;2.75;;;10.60;99.90;;;;;;5112717;28;20124;-86
2021/05/21 03:41:19;;;;;;;12.57;2.50;;;10.50;99.90;;;;;;5113455;28;20415;-85
2021/05/21 03:43:50;;;;;;;13.52;2.78;;;10.60;99.90;;;;;;5115805;28;20105;-85
2021/05/21 03:46:18;;;;;;;14.32;2.55;;;10.50;99.90;;;;;;5113798;28;20097;-87
2021/05/21 03:48:45;;;;;;;12.95;2.55;;;10.40;99.90;;;;;;5096934;28;20548;-85
2021/05/21 03:51:12;;;;;;;12.70;2.95;;;10.40;99.90;;;;;;5096494;28;20063;-85
2021/05/21 03:53:39;;;;;;;15.68;3.35;;;10.30;99.90;;;;;;5113262;28;20387;-85
2021/05/21 03:56:06;;;;;;;13.65;2.97;;;10.20;99.90;;;;;;5096028;28;20910;-86
2021/05/21 03:58:40;;;;;;;13.40;2.17;;;10.20;99.90;;;;;;5096351;28;20052;-86
2021/05/21 04:01:06;;;;;;;13.73;2.60;;;10.20;99.90;;;;;;5147957;28;20476;-85
2021/05/21 04:03:34;;;;;;;10.65;2.13;;;10.10;99.90;;;;;;5113733;28;20042;-86
2021/05/21 04:06:01;;;;;;;9.52;2.05;;;10.10;99.90;;;;;;5113497;28;20551;-85
2021/05/21 04:08:29;;;;;;;10.18;2.15;;;10.10;99.90;;;;;;5096720;28;20143;-85
2021/05/21 04:10:56;;;;;;;10.68;2.10;;;10.10;99.90;;;;;;5096000;28;20040;-85
2021/05/21 04:13:24;;;;;;;12.75;3.00;;;10.10;99.90;;;;;;5130168;28;20107;-85
2021/05/21 04:15:51;;;;;;;9.82;2.17;;;10.20;99.90;;;;;;5096365;28;20134;-84
2021/05/21 04:18:21;;;;;;;15.55;2.47;;;10.20;99.90;;;;;;5114164;28;20056;-85
2021/05/21 04:20:49;;;;;;;10.23;2.35;;;10.20;99.90;;;;;;5130039;28;20506;-85
2021/05/21 04:23:17;;;;;;;9.90;1.85;;;10.20;99.90;;;;;;5113120;28;20048;-85
2021/05/21 04:25:49;;;;;;;12.98;2.35;;;10.30;99.90;;;;;;5114162;28;20403;-85
2021/05/21 04:28:17;;;;;;;15.73;2.60;;;10.30;99.90;;;;;;5096305;28;20071;-85
2021/05/21 04:30:44;;;;;;;12.18;2.20;;;10.30;99.90;;;;;;5097341;28;20040;-85
2021/05/21 04:33:11;;;;;;;13.48;2.85;;;10.40;99.90;;;;;;5112705;28;20036;-85
2021/05/21 04:35:39;;;;;;;12.52;2.50;;;10.40;99.90;;;;;;5115301;28;20114;-85
2021/05/21 04:38:07;;;;;;;14.50;3.05;;;10.50;99.90;;;;;;5117473;28;20134;-85
2021/05/21 04:40:34;;;;;;;18.85;3.03;;;10.50;99.90;;;;;;5116687;28;20109;-86
2021/05/21 04:43:02;;;;;;;15.85;3.17;;;10.60;99.90;;;;;;5116484;28;20044;-84
2021/05/21 04:45:29;;;;;;;19.85;3.00;;;10.60;99.90;;;;;;5116498;28;20031;-85
2021/05/21 04:47:56;;;;;;;16.17;2.50;;;10.60;99.90;;;;;;5134215;28;20039;-84
2021/05/21 04:50:23;;;;;;;14.32;2.92;;;10.70;99.90;;;;;;5117142;28;20063;-84
2021/05/21 04:52:50;;;;;;;14.45;2.50;;;10.70;99.90;;;;;;5116413;28;20039;-85
2021/05/21 04:55:17;;;;;;;16.92;2.58;;;10.60;99.90;;;;;;5133408;28;20392;-84
2021/05/21 04:57:49;;;;;;;13.55;2.70;;;10.60;99.90;;;;;;5116469;28;20035;-85
2021/05/21 05:00:17;;;;;;;14.25;2.65;;;10.70;99.90;;;;;;5117095;28;20081;-85
2021/05/21 05:02:45;;;;;;;13.23;2.05;;;10.60;99.90;;;;;;5116751;28;20471;-86
2021/05/21 05:05:12;;;;;;;12.70;2.55;;;10.70;99.90;;;;;;5100422;28;20180;-85
2021/05/21 05:07:45;;;;;;;16.95;3.17;;;10.70;99.90;;;;;;5118318;28;20487;-86
2021/05/21 05:10:12;;;;;;;14.82;2.75;;;10.70;99.90;;;;;;5116236;28;20071;-85
2021/05/21 05:12:39;;;;;;;16.23;2.53;;;10.70;99.90;;;;;;5117007;28;20138;-86
2021/05/21 05:15:13;;;;;;;18.27;3.30;;;10.70;99.90;;;;;;5116946;28;20043;-86
2021/05/21 05:17:39;;;;;;;12.90;2.70;;;10.70;99.90;;;;;;5115967;28;20096;-86
2021/05/21 05:20:07;;;;;;;17.70;2.83;;;10.70;99.90;;;;;;5115936;28;20039;-88
2021/05/21 05:22:34;;;;;;;15.38;2.92;;;10.60;99.90;;;;;;5115983;28;20031;-86
2021/05/21 05:25:02;;;;;;;14.73;2.53;;;10.60;99.90;;;;;;5099145;28;20532;-84
2021/05/21 05:27:30;;;;;;;11.80;2.70;;;10.50;99.90;;;;;;5116577;28;20043;-85
2021/05/21 05:29:58;;;;;;;16.25;2.67;;;10.50;99.90;;;;;;5099389;28;20043;-85
2021/05/21 05:32:26;;;;;;;15.90;3.05;;;10.60;99.90;;;;;;5115687;28;20032;-85
2021/05/21 05:34:53;;;;;;;16.80;2.90;;;10.60;99.90;;;;;;5132354;28;20464;-85
2021/05/21 05:37:20;;;;;;;13.25;2.40;;;10.60;99.90;;;;;;5115633;28;20064;-84
2021/05/21 05:39:48;;;;;;;15.93;2.58;;;10.70;99.90;;;;;;5115649;28;20106;-86
2021/05/21 05:42:14;;;;;;;16.98;3.42;;;10.70;99.90;;;;;;5115277;28;20046;-85
2021/05/21 05:44:42;;;;;;;15.48;2.83;;;10.80;99.90;;;;;;5115435;28;20027;-86
2021/05/21 05:47:09;;;;;;;14.35;3.35;;;10.90;99.90;;;;;;5115021;28;20035;-85
2021/05/21 05:49:36;;;;;;;16.77;3.08;;;10.90;99.90;;;;;;5098790;28;20035;-86
2021/05/21 05:52:03;;;;;;;12.73;2.72;;;11.00;99.90;;;;;;5098405;28;20059;-84
2021/05/21 05:54:30;;;;;;;16.38;2.78;;;11.10;99.90;;;;;;5115431;28;20035;-86
2021/05/21 05:56:57;;;;;;;15.18;2.80;;;11.20;99.90;;;;;;5116043;28;20040;-86
2021/05/21 05:59:28;;;;;;;21.52;3.67;;;11.20;99.90;;;;;;5114984;28;20039;-86
2021/05/21 06:02:11;;;;;;;16.48;3.28;;;11.30;99.90;;;;;;5133380;28;20177;-85
2021/05/21 06:04:38;;;;;;;18.92;3.28;;;11.40;99.90;;;;;;5132288;28;20063;-85
2021/05/21 06:07:05;;;;;;;15.35;3.50;;;11.50;99.90;;;;;;5114981;28;20036;-86
2021/05/21 06:09:32;;;;;;;17.48;3.63;;;11.60;99.90;;;;;;5099319;28;20086;-86
2021/05/21 06:11:59;;;;;;;19.45;3.35;;;11.70;99.90;;;;;;5099458;28;20067;-85
2021/05/21 06:14:26;;;;;;;16.15;3.67;;;11.80;99.90;;;;;;5131456;28;20066;-85
2021/05/21 06:16:53;;;;;;;18.02;3.58;;;11.80;99.90;;;;;;5115559;28;20043;-85
2021/05/21 06:19:20;;;;;;;18.30;3.30;;;11.80;99.90;;;;;;5115710;28;20034;-87
2021/05/21 06:21:46;;;;;;;18.63;3.22;;;11.90;99.90;;;;;;5128366;28;20540;-86
2021/05/21 06:24:15;;;;;;;15.15;3.20;;;11.90;99.90;;;;;;5098211;28;20190;-86
2021/05/21 06:27:29;;;;;;;16.90;3.63;;;11.80;99.90;;;;;;5120640;27;20463;-86
2021/05/21 06:29:30;;;;;;;16.65;3.53;;;11.80;99.90;;;;;;5124109;28;20043;-87
2021/05/21 06:31:57;;;;;;;20.55;3.53;;;11.80;99.90;;;;;;5152078;27;20050;-86
2021/05/21 06:34:24;;;;;;;11.48;2.92;;;11.90;99.90;;;;;;5131211;28;20031;-86
2021/05/21 06:36:50;;;;;;;17.95;3.03;;;11.90;99.90;;;;;;5113256;28;20051;-85
2021/05/21 06:39:17;;;;;;;19.25;3.33;;;12.10;99.90;;;;;;5117850;27;20083;-85
2021/05/21 06:41:44;;;;;;;14.70;3.10;;;12.20;99.90;;;;;;5117905;27;20046;-86
2021/05/21 06:44:11;;;;;;;13.55;3.00;;;12.20;99.90;;;;;;5118480;27;20039;-88
2021/05/21 06:46:38;;;;;;;13.52;3.03;;;12.20;99.90;;;;;;5118162;27;20119;-79
2021/05/21 06:49:11;;;;;;;14.82;3.13;;;12.20;99.90;;;;;;5118267;27;20043;-83
2021/05/21 06:51:38;;;;;;;17.30;3.17;;;12.30;99.90;;;;;;5135621;27;20042;-85
2021/05/21 06:54:06;;;;;;;17.55;4.20;;;12.40;99.90;;;;;;5114195;28;20063;-83
2021/05/21 06:56:35;;;;;;;16.58;3.28;;;12.50;99.90;;;;;;5130341;28;20035;-80
2021/05/21 06:59:03;;;;;;;13.80;3.35;;;12.40;99.90;;;;;;5148193;28;20032;-81
2021/05/21 07:01:31;;;;;;;17.27;3.38;;;12.60;99.90;;;;;;5148193;28;20044;-84
2021/05/21 07:03:58;;;;;;;20.92;3.72;;;12.70;99.90;;;;;;5135804;27;20027;-86
2021/05/21 07:06:25;;;;;;;13.35;3.25;;;12.70;99.90;;;;;;5169254;27;20035;-83
2021/05/21 07:08:52;;;;;;;17.35;3.85;;;12.70;99.90;;;;;;5151284;28;20080;-83
2021/05/21 07:11:19;;;;;;;15.20;3.08;;;12.80;99.90;;;;;;5168860;27;20061;-82
2021/05/21 07:13:48;;;;;;;15.43;3.78;;;12.90;99.90;;;;;;5151036;27;20122;-85
2021/05/21 07:16:16;;;;;;;19.15;3.35;;;13.00;99.90;;;;;;5136566;27;20035;-88
2021/05/21 07:18:43;;;;;;;16.25;3.45;;;13.20;99.90;;;;;;5119151;28;20039;-90
2021/05/21 07:21:10;;;;;;;13.30;3.28;;;13.30;99.90;;;;;;5135273;28;20031;-89
2021/05/21 07:23:36;;;;;;;15.43;3.20;;;13.40;99.90;;;;;;5134896;28;20031;-91
2021/05/21 07:26:04;;;;;;;14.27;3.38;;;13.40;99.90;;;;;;5136764;28;20042;-87
2021/05/21 07:28:31;;;;;;;19.42;3.00;;;13.50;99.90;;;;;;5101527;28;20047;-88
2021/05/21 07:30:58;;;;;;;14.50;3.20;;;13.60;99.90;;;;;;5118852;28;20035;-87
2021/05/21 07:33:25;;;;;;;10.90;2.63;;;13.70;99.90;;;;;;5118576;28;20138;-88
2021/05/21 07:35:52;;;;;;;15.73;3.00;;;13.60;99.90;;;;;;5135090;28;20028;-86
2021/05/21 07:38:19;;;;;;;15.95;2.85;;;13.50;99.90;;;;;;5134280;28;20042;-89
2021/05/21 07:40:46;;;;;;;13.00;2.47;;;13.50;99.90;;;;;;5133914;28;20051;-87
2021/05/21 07:43:13;;;;;;;14.88;4.10;;;13.40;99.90;;;;;;5151274;28;20485;-87
2021/05/21 07:45:40;;;;;;;12.32;2.70;;;13.40;99.90;;;;;;5116939;28;20463;-87
2021/05/21 07:48:07;;;;;;;10.45;2.58;;;13.50;99.90;;;;;;5134729;28;20092;-88
2021/05/21 07:50:38;;;;;;;15.10;3.10;;;13.70;99.90;;;;;;5150596;28;20111;-89
2021/05/21 07:53:14;;;;;;;14.57;2.80;;;13.90;99.90;;;;;;5152243;28;20044;-90
2021/05/21 07:55:44;;;;;;;10.85;2.70;;;14.00;99.90;;;;;;5118138;28;20070;-91
2021/05/21 07:58:14;;;;;;;11.75;3.22;;;14.30;99.90;;;;;;5135817;28;20133;-91
2021/05/21 08:00:42;;;;;;;11.07;2.42;;;14.20;99.90;;;;;;5135194;28;20051;-91
2021/05/21 08:03:09;;;;;;;12.73;2.80;;;14.30;99.90;;;;;;5151749;28;20035;-88
2021/05/21 08:05:36;;;;;;;11.25;2.80;;;14.40;99.90;;;;;;5151046;28;20393;-86
2021/05/21 08:08:03;;;;;;;11.60;2.70;;;14.10;99.90;;;;;;5151306;28;20043;-91
2021/05/21 08:10:30;;;;;;;13.90;3.05;;;14.20;99.90;;;;;;5135933;27;20031;-86
2021/05/21 08:13:02;;;;;;;13.23;3.03;;;14.10;99.90;;;;;;5104755;27;20064;-87
2021/05/21 08:15:29;;;;;;;15.07;3.08;;;14.40;99.90;;;;;;5173495;27;20035;-89
2021/05/21 08:17:56;;;;;;;11.63;2.70;;;14.80;99.90;;;;;;5155756;27;20050;-87
2021/05/21 08:20:23;;;;;;;14.73;2.78;;;15.10;99.90;;;;;;5137755;27;20031;-88
2021/05/21 08:22:49;;;;;;;10.75;2.38;;;15.00;99.90;;;;;;5137903;27;20433;-85
2021/05/21 08:25:16;;;;;;;15.32;3.10;;;14.80;99.90;;;;;;5120843;27;20031;-86
2021/05/21 08:27:43;;;;;;;11.80;3.58;;;14.70;99.90;;;;;;5103714;27;20071;-88
2021/05/21 08:30:10;;;;;;;11.70;2.90;;;14.30;99.90;;;;;;5120919;27;20412;-85
2021/05/21 08:32:37;;;;;;;13.32;3.10;;;13.90;99.90;;;;;;5120773;27;20050;-87
2021/05/21 08:35:05;;;;;;;11.52;2.85;;;13.60;99.90;;;;;;5137363;27;20031;-86
2021/05/21 08:37:32;;;;;;;13.65;2.60;;;13.40;99.90;;;;;;5172604;27;20470;-87
2021/05/21 08:40:00;;;;;;;9.38;2.42;;;13.40;99.90;;;;;;5137805;27;20032;-86
2021/05/21 08:42:37;;;;;;;10.88;2.70;;;13.40;99.90;;;;;;5154193;27;20051;-87
2021/05/21 08:45:06;;;;;;;9.82;2.38;;;13.40;99.90;;;;;;5155422;27;20039;-86
2021/05/21 08:47:34;;;;;;;19.30;2.67;;;13.30;99.90;;;;;;5154593;27;20035;-86
2021/05/21 08:50:09;;;;;;;13.02;2.60;;;13.30;99.90;;;;;;5137934;27;20015;-87
2021/05/21 08:52:36;;;;;;;11.95;2.75;;;13.20;99.90;;;;;;5133526;28;20043;-86
2021/05/21 08:55:06;;;;;;;12.57;2.42;;;13.50;99.90;;;;;;5133822;28;20046;-86
2021/05/21 08:57:33;;;;;;;13.23;2.33;;;13.50;99.90;;;;;;5116384;28;20066;-86
2021/05/21 09:00:01;;;;;;;11.18;2.88;;;13.70;99.90;;;;;;5116292;28;20035;-86
2021/05/21 09:02:29;;;;;;;11.38;2.47;;;13.90;99.90;;;;;;5116964;28;20396;-87
2021/05/21 09:04:58;;;;;;;12.68;2.55;;;14.00;99.90;;;;;;5142204;27;20040;-86
2021/05/21 09:07:32;;;;;;;11.80;2.50;;;14.10;99.90;;;;;;5136597;27;20035;-83
2021/05/21 09:10:07;;;;;;;15.65;2.83;;;14.30;99.90;;;;;;5153244;27;20039;-85
2021/05/21 09:13:01;;;;;;;11.80;2.40;;;14.50;99.90;;;;;;5153298;27;20031;-84
2021/05/21 09:15:28;;;;;;;11.45;2.33;;;14.60;99.70;;;;;;5132848;27;20043;-85
2021/05/21 09:17:58;;;;;;;11.30;2.22;;;14.80;99.90;;;;;;5120051;27;20053;-83
2021/05/21 09:20:34;;;;;;;9.73;2.60;;;15.00;99.00;;;;;;5135133;27;20050;-86
2021/05/21 09:23:15;;;;;;;11.07;2.15;;;15.10;99.30;;;;;;5136192;27;20027;-84
2021/05/21 09:25:50;;;;;;;9.88;2.50;;;15.10;97.20;;;;;;5152798;27;20404;-83
2021/05/21 09:28:38;;;;;;;9.23;2.60;;;15.30;95.70;;;;;;5153080;27;20070;-85
2021/05/21 09:31:21;;;;;;;12.38;2.30;;;15.40;94.90;;;;;;5136406;27;20039;-84
2021/05/21 09:33:52;;;;;;;11.50;2.38;;;15.40;95.10;;;;;;5136172;27;20555;-87
2021/05/21 09:36:31;;;;;;;13.27;2.13;;;15.30;94.30;;;;;;5153117;27;20402;-85
2021/05/21 09:38:59;;;;;;;16.08;2.90;;;15.20;94.10;;;;;;5135975;27;20038;-85
2021/05/21 09:41:26;;;;;;;8.98;2.35;;;15.30;95.10;;;;;;5136065;27;20072;-85
2021/05/21 09:44:00;;;;;;;11.38;2.58;;;15.30;94.70;;;;;;5118676;27;20031;-85
2021/05/21 09:46:41;;;;;;;7.95;2.03;;;15.30;93.70;;;;;;5136974;27;20068;-87
2021/05/21 09:49:27;;;;;;;13.13;2.63;;;15.30;93.40;;;;;;5119323;27;20063;-85
2021/05/21 09:51:57;;;;;;;10.57;2.70;;;15.20;93.40;;;;;;5153618;27;20031;-85
2021/05/21 09:54:25;;;;;;;13.07;2.50;;;15.00;93.20;;;;;;5136071;27;20031;-85
2021/05/21 09:57:03;;;;;;;10.95;2.17;;;15.00;93.40;;;;;;5118209;27;20054;-85
2021/05/21 09:59:45;;;;;;;11.07;2.38;;;14.90;93.80;;;;;;5136553;27;20076;-85
2021/05/21 10:02:33;;;;;;;8.20;2.58;;;14.80;92.90;;;;;;5152888;27;20035;-85
2021/05/21 10:05:02;;;;;;;11.27;2.60;;;14.70;93.10;;;;;;5140560;27;20130;-85
2021/05/21 10:07:30;;;;;;;14.63;2.70;;;14.90;96.00;;;;;;5154579;27;20054;-85
2021/05/21 10:09:58;;;;;;;12.57;2.17;;;15.00;95.90;;;;;;5137166;27;20039;-85
2021/05/21 10:12:25;;;;;;;9.98;2.63;;;15.10;94.30;;;;;;5135306;27;20031;-85
2021/05/21 10:14:52;;;;;;;11.38;2.38;;;15.10;94.60;;;;;;5135380;27;20054;-85
2021/05/21 10:17:25;;;;;;;8.18;1.75;;;15.10;95.10;;;;;;5119108;27;20471;-85
2021/05/21 10:19:54;;;;;;;10.35;2.10;;;15.00;94.80;;;;;;5152236;27;20060;-85
2021/05/21 10:22:31;;;;;;;10.35;2.30;;;14.90;93.90;;;;;;5152331;27;20486;-85
2021/05/21 10:25:07;;;;;;;10.77;2.33;;;14.90;95.00;;;;;;5169968;27;20046;-84
2021/05/21 10:27:56;;;;;;;12.48;2.33;;;15.30;95.40;;;;;;5182142;27;20692;-83
2021/05/21 10:30:26;;;;;;;8.40;2.00;;;15.70;95.70;;;;;;5114820;28;20051;-84
2021/05/21 10:33:12;;;;;;;10.38;2.42;;;15.60;92.50;;;;;;5147890;28;20546;-83
2021/05/21 10:35:39;;;;;;;;;;;15.20;93.30;;;;;;5150376;28;20041;-83
2021/05/21 10:38:24;;;;;;;8.48;1.60;;;14.80;97.00;;;;;;5131918;28;19916;-83
2021/05/21 10:41:23;;;;;;;8.05;1.98;;;14.40;99.40;;;;;;5131206;28;20070;-84
2021/05/21 10:43:51;;;;;;;9.85;1.85;;;14.40;99.90;;;;;;5076558;28;20062;-84
2021/05/21 10:46:19;;;;;;;14.27;1.80;;;14.40;99.90;;;;;;5114808;28;20035;-83
2021/05/21 10:48:59;;;;;;;8.80;1.90;;;14.40;99.90;;;;;;5148180;28;20043;-83
2021/05/21 10:51:29;;;;;;;6.70;1.77;;;14.20;99.90;;;;;;5166581;28;20471;-83
2021/05/21 10:54:25;;;;;;;7.07;1.88;;;14.10;99.90;;;;;;5147844;28;20118;-83
2021/05/21 10:56:57;;;;;;;10.68;1.98;;;13.60;99.90;;;;;;5147689;28;20060;-83
2021/05/21 10:59:49;;;;;;;10.07;2.40;;;13.40;99.90;;;;;;5115120;28;20062;-83
2021/05/21 11:02:16;;;;;;;10.50;2.10;;;13.10;99.90;;;;;;5148034;28;20042;-84
2021/05/21 11:04:42;;;;;;;7.53;1.60;;;13.00;99.90;;;;;;5130906;28;20480;-83
2021/05/21 11:07:10;;;;;;;6.40;1.67;;;12.70;99.90;;;;;;5130892;28;20045;-83
2021/05/21 11:09:45;;;;;;;5.65;1.58;;;12.80;99.90;;;;;;5114252;28;20054;-83
2021/05/21 11:12:15;;;;;;;6.43;1.40;;;13.10;99.90;;;;;;5131000;28;20039;-83
2021/05/21 11:14:46;;;;;;;7.97;1.73;;;13.30;99.90;;;;;;5131119;28;20047;-84
2021/05/21 11:17:25;;;;;;;4.05;1.20;;;13.70;99.90;;;;;;5133056;28;20043;-83
2021/05/21 11:19:58;;;;;;;4.43;1.25;;;13.90;99.90;;;;;;5147341;28;20036;-82
2021/05/21 11:22:31;;;;;;;6.38;1.75;;;14.10;99.90;;;;;;5145729;28;20437;-84
2021/05/21 11:25:07;;;;;;;8.75;1.80;;;14.40;99.90;;;;;;5126885;28;20032;-84
2021/05/21 11:27:35;;;;;;;4.50;1.23;;;14.60;99.90;;;;;;5126938;28;20052;-83
2021/05/21 11:30:07;;;;;;;6.47;1.83;;;14.40;99.90;;;;;;5093939;28;20051;-83
2021/05/21 11:32:37;;;;;;;7.82;1.88;;;14.30;99.90;;;;;;5126916;28;20044;-83
2021/05/21 11:35:11;;;;;;;9.30;2.40;;;14.30;99.90;;;;;;5144587;28;20042;-83
2021/05/21 11:37:42;;;;;;;9.90;2.47;;;13.80;99.90;;;;;;5122096;28;20050;-83
2021/05/21 11:40:09;;;;;;;8.20;2.13;;;13.80;99.90;;;;;;5096565;28;20052;-85
2021/05/21 11:42:36;;;;;;;6.00;1.80;;;13.80;99.90;;;;;;5113189;28;20111;-84
2021/05/21 11:45:06;;;;;;;6.90;1.88;;;14.00;99.90;;;;;;5096121;28;20120;-83
2021/05/21 11:47:37;;;;;;;8.60;2.10;;;14.40;99.90;;;;;;5132916;28;20039;-84
2021/05/21 11:50:09;;;;;;;6.75;2.03;;;14.80;99.90;;;;;;5116715;28;20389;-82
2021/05/21 11:52:36;;;;;;;6.95;1.85;;;15.20;99.90;;;;;;5133531;28;20044;-84
2021/05/21 11:55:04;;;;;;;8.10;2.03;;;15.40;99.90;;;;;;5116065;28;20547;-84
2021/05/21 11:57:31;;;;;;;8.45;2.28;;;15.70;99.90;;;;;;5133233;28;20035;-83
2021/05/21 11:59:58;;;;;;;9.15;2.42;;;15.90;99.90;;;;;;5099682;28;20088;-85
2021/05/21 12:02:28;;;;;;;8.90;2.38;;;16.10;99.90;;;;;;5116985;28;20540;-83
2021/05/21 12:04:55;;;;;;;7.30;1.80;;;16.20;99.90;;;;;;5098934;28;20035;-83
2021/05/21 12:07:23;;;;;;;10.73;2.35;;;16.00;99.90;;;;;;5111496;28;20032;-83
2021/05/21 12:10:00;;;;;;;7.60;2.10;;;16.00;99.90;;;;;;5095846;28;20040;-86
2021/05/21 12:12:28;;;;;;;8.13;2.13;;;15.70;99.90;;;;;;5112675;28;20036;-83
2021/05/21 12:15:16;;;;;;;8.77;2.20;;;15.40;99.90;;;;;;5095601;28;20119;-83
2021/05/21 12:17:49;;;;;;;9.38;2.40;;;15.20;99.90;;;;;;5112863;28;20043;-83
2021/05/21 12:20:18;;;;;;;10.02;2.38;;;15.30;99.90;;;;;;5095931;28;20080;-84
2021/05/21 12:23:05;;;;;;;10.23;2.55;;;15.60;99.90;;;;;;5112408;28;20039;-83
2021/05/21 12:25:42;;;;;;;6.13;2.08;;;15.90;99.90;;;;;;5114342;28;20052;-83
2021/05/21 12:28:08;;;;;;;9.18;2.47;;;15.90;97.70;;;;;;5120769;28;20463;-83
2021/05/21 12:30:36;;;;;;;7.30;1.98;;;16.00;97.90;;;;;;5112748;28;20119;-82
2021/05/21 12:33:06;;;;;;;9.23;2.15;;;15.90;95.90;;;;;;5095150;28;20036;-82
2021/05/21 12:35:41;;;;;;;10.77;1.85;;;15.50;95.00;;;;;;5129234;28;20097;-83
2021/05/21 12:38:10;;;;;;;6.55;1.85;;;15.30;94.90;;;;;;5112212;28;20491;-84
2021/05/21 12:40:50;;;;;;;8.68;1.65;;;15.30;96.90;;;;;;5115764;28;20036;-83
2021/05/21 12:43:17;;;;;;;8.82;1.80;;;15.60;94.70;;;;;;5115291;28;20054;-82
2021/05/21 12:46:05;;;;;;;8.10;1.95;;;15.90;94.10;;;;;;5132585;28;20114;-83
2021/05/21 12:48:41;;;;;;;5.85;1.67;;;15.90;92.30;;;;;;5133094;28;20165;-83
2021/05/21 12:51:21;;;;;;;8.60;2.28;;;15.90;92.40;;;;;;5114831;28;20043;-82